Time;durP1;ratioP1;P1;durP2;ratioP2;P2;SDS_P1;SDS_P2;PMS_P1;PMS_P2;Temp;Humidity;BMP_temperature;BMP_pressure;BME280_temperature;BME280_humidity;BME280_pressure;Samples;Min_cycle;Max_cycle;Signal;HPM_P1;HPM_P2
2022/06/13 00:00:32;;;;;;;6.75;5.15;;;;;;;18.00;75.13;94610.59;4173554;28;20052;-51
2022/06/13 00:02:34;;;;;;;7.97;5.00;;;;;;;18.03;74.97;94608.53;4162317;28;20521;-46
2022/06/13 00:04:36;;;;;;;10.45;5.40;;;;;;;18.01;74.51;94612.19;4158581;28;20058;-48
2022/06/13 00:06:38;;;;;;;10.48;5.47;;;;;;;18.00;74.89;94605.28;4169840;28;20107;-53
2022/06/13 00:08:40;;;;;;;6.22;4.90;;;;;;;18.05;74.43;94615.25;4161474;28;20564;-50
2022/06/13 00:10:42;;;;;;;7.25;4.85;;;;;;;18.04;74.47;94610.16;4172417;28;20059;-49
2022/06/13 00:12:44;;;;;;;6.72;4.80;;;;;;;18.03;74.67;94614.66;4170232;28;20041;-48
2022/06/13 00:14:46;;;;;;;7.57;5.03;;;;;;;18.06;74.42;94610.78;4166835;28;20650;-49
2022/06/13 00:16:47;;;;;;;7.35;5.22;;;;;;;18.00;74.29;94612.41;4158825;28;20061;-50
2022/06/13 00:18:49;;;;;;;7.68;5.43;;;;;;;17.97;74.36;94618.94;4171691;28;20098;-49
2022/06/13 00:20:53;;;;;;;8.90;4.78;;;;;;;17.95;74.84;94609.56;4172153;28;20053;-53
2022/06/13 00:22:55;;;;;;;6.20;4.55;;;;;;;17.96;74.60;94613.84;4163155;28;20057;-53
2022/06/13 00:24:57;;;;;;;8.25;4.90;;;;;;;17.95;74.67;94612.22;4173506;28;20057;-52
2022/06/13 00:26:59;;;;;;;7.65;5.53;;;;;;;17.89;74.86;94619.16;4164880;28;20127;-52
2022/06/13 00:29:01;;;;;;;7.05;5.43;;;;;;;17.81;75.09;94627.31;4158540;28;20053;-50
2022/06/13 00:31:02;;;;;;;6.50;5.60;;;;;;;17.77;75.45;94621.59;4171857;28;20064;-52
2022/06/13 00:33:04;;;;;;;7.70;5.50;;;;;;;17.76;75.77;94627.09;4170466;28;20574;-52
2022/06/13 00:35:07;;;;;;;5.88;5.20;;;;;;;17.81;75.71;94624.66;4159017;28;20090;-53
2022/06/13 00:37:08;;;;;;;6.57;5.35;;;;;;;17.84;75.54;94634.06;4158137;28;20349;-56
2022/06/13 00:39:10;;;;;;;7.07;5.28;;;;;;;17.83;75.14;94633.22;4158445;28;20292;-53
2022/06/13 00:41:20;;;;;;;8.10;5.30;;;;;;;17.85;75.08;94633.00;4158948;28;20482;-53
2022/06/13 00:43:22;;;;;;;6.53;4.90;;;;;;;17.82;75.18;94628.94;4173828;28;20053;-49
2022/06/13 00:45:26;;;;;;;7.35;5.38;;;;;;;17.83;74.98;94621.81;4172623;28;20064;-48
2022/06/13 00:47:28;;;;;;;8.25;5.28;;;;;;;17.85;74.83;94622.41;4156985;28;20045;-51
2022/06/13 00:49:38;;;;;;;7.72;5.15;;;;;;;17.87;74.81;94629.13;4159341;28;20401;-52
2022/06/13 00:51:47;;;;;;;7.75;5.47;;;;;;;17.88;74.61;94629.97;4164491;28;20099;-52
2022/06/13 00:53:49;;;;;;;6.88;5.03;;;;;;;17.87;74.62;94628.31;4169424;28;20154;-52
2022/06/13 00:56:21;;;;;;;7.90;5.50;;;;;;;17.83;74.51;94627.09;4172855;28;20049;-49
2022/06/13 00:58:25;;;;;;;7.72;5.38;;;;;;;17.81;74.47;94628.09;4168555;28;20118;-49
2022/06/13 01:00:28;;;;;;;7.43;4.90;;;;;;;17.83;74.69;94625.25;4165480;28;20494;-51
2022/06/13 01:02:30;;;;;;;7.10;4.80;;;;;;;17.83;74.58;94619.16;4157608;28;20049;-50
2022/06/13 01:04:32;;;;;;;8.73;5.82;;;;;;;17.78;74.55;94620.56;4157688;28;20489;-54
2022/06/13 01:06:37;;;;;;;7.28;4.53;;;;;;;17.78;74.63;94612.59;4166234;28;20118;-51
2022/06/13 01:08:39;;;;;;;6.05;5.28;;;;;;;17.78;74.61;94612.59;4156746;28;20037;-51
2022/06/13 01:13:07;;;;;;;9.33;5.67;;;;;;;17.80;75.06;94617.72;4173642;28;20521;-51
2022/06/13 01:15:47;;;;;;;7.75;5.63;;;;;;;17.81;75.15;94608.75;4160560;28;20480;-50
2022/06/13 01:17:49;;;;;;;8.20;5.32;;;;;;;17.80;74.73;94613.22;4164659;28;20049;-51
2022/06/13 01:20:09;;;;;;;8.88;5.22;;;;;;;17.77;74.82;94603.03;4162358;28;20123;-49
2022/06/13 01:22:34;;;;;;;9.25;5.80;;;;;;;17.75;74.96;94602.44;4157873;28;20073;-53
2022/06/13 01:24:51;;;;;;;8.73;5.53;;;;;;;17.74;74.66;94615.88;4161885;28;20041;-52
2022/06/13 01:27:18;;;;;;;7.40;5.57;;;;;;;17.68;75.47;94612.22;4171845;28;20079;-49
2022/06/13 01:29:38;;;;;;;8.85;5.78;;;;;;;17.67;75.47;94604.47;4163559;28;20049;-50
2022/06/13 01:32:04;;;;;;;7.53;5.53;;;;;;;17.66;75.64;94602.84;4163230;28;20050;-52
2022/06/13 01:34:11;;;;;;;14.85;6.10;;;;;;;17.61;75.36;94600.81;4166721;28;20048;-50
2022/06/13 01:36:28;;;;;;;7.32;5.45;;;;;;;17.59;75.67;94605.50;4161250;28;20047;-49
2022/06/13 01:38:40;;;;;;;7.75;5.22;;;;;;;17.56;75.59;94604.06;4161976;28;20227;-50
2022/06/13 01:41:12;;;;;;;7.30;6.13;;;;;;;17.49;75.67;94605.91;4165311;28;20065;-52
2022/06/13 01:43:36;;;;;;;8.98;5.57;;;;;;;17.43;75.91;94609.38;4163294;28;20143;-55
2022/06/13 01:46:03;;;;;;;8.15;5.50;;;;;;;17.36;75.54;94614.66;4160696;28;20076;-52
2022/06/13 01:48:22;;;;;;;9.00;5.65;;;;;;;17.20;76.34;94621.16;4168129;28;20049;-53
2022/06/13 01:50:24;;;;;;;6.88;5.40;;;;;;;17.02;76.30;94626.22;4171262;28;20041;-52
2022/06/13 01:52:44;;;;;;;5.75;5.13;;;;;;;16.92;77.23;94623.16;4165266;28;20050;-52
2022/06/13 01:54:45;;;;;;;7.03;5.40;;;;;;;16.98;77.72;94620.50;4161101;28;20497;-51
2022/06/13 01:57:17;;;;;;;9.40;6.30;;;;;;;17.10;77.20;94628.69;4176552;28;20057;-52
2022/06/13 01:59:28;;;;;;;8.88;6.13;;;;;;;17.22;77.06;94620.16;4159431;28;20524;-53
2022/06/13 02:01:50;;;;;;;7.03;5.95;;;;;;;17.29;77.03;94608.53;4164666;28;20077;-52
2022/06/13 02:04:21;;;;;;;7.22;5.57;;;;;;;17.37;76.35;94613.63;4173243;28;20053;-49
2022/06/13 02:06:28;;;;;;;7.10;5.40;;;;;;;17.41;76.19;94619.34;4175276;28;20114;-49
2022/06/13 02:08:44;;;;;;;7.38;5.28;;;;;;;17.43;76.26;94622.63;4175553;28;20075;-50
2022/06/13 02:10:54;;;;;;;7.82;6.15;;;;;;;17.47;76.27;94633.63;4161699;28;20053;-53
2022/06/13 02:13:01;;;;;;;7.07;5.68;;;;;;;17.50;76.29;94628.72;4170024;28;20084;-52
2022/06/13 02:15:10;;;;;;;7.63;5.30;;;;;;;17.54;75.83;94626.50;4160993;28;20061;-52
2022/06/13 02:17:14;;;;;;;12.43;5.65;;;;;;;17.55;75.70;94623.66;4170683;28;20489;-49
2022/06/13 02:19:21;;;;;;;8.77;5.43;;;;;;;17.57;75.51;94626.91;4162651;28;20119;-53
2022/06/13 02:21:27;;;;;;;6.00;5.28;;;;;;;17.58;75.20;94628.53;4175748;28;20053;-52
2022/06/13 02:23:30;;;;;;;9.40;5.72;;;;;;;17.56;75.52;94622.63;4169175;28;20610;-49
2022/06/13 02:25:53;;;;;;;5.85;5.18;;;;;;;17.57;75.25;94626.06;4163690;28;20045;-52
2022/06/13 02:28:02;;;;;;;6.75;5.38;;;;;;;17.54;75.30;94634.44;4166612;28;20049;-49
2022/06/13 02:30:09;;;;;;;8.93;5.32;;;;;;;17.53;75.46;94635.44;4158740;28;20534;-49
2022/06/13 02:32:18;;;;;;;6.72;5.97;;;;;;;17.51;75.52;94630.38;4170940;28;20114;-47
2022/06/13 02:34:23;;;;;;;7.10;5.20;;;;;;;17.52;75.60;94636.47;4161510;28;20751;-51
2022/06/13 02:36:42;;;;;;;9.27;5.32;;;;;;;17.51;75.51;94624.22;4166259;28;20049;-51
2022/06/13 02:38:56;;;;;;;8.35;5.18;;;;;;;17.52;75.54;94625.88;4172649;28;20147;-51
2022/06/13 02:41:06;;;;;;;11.25;6.10;;;;;;;17.55;75.36;94630.75;4159872;28;20046;-52
2022/06/13 02:43:20;;;;;;;6.40;5.57;;;;;;;17.55;75.23;94626.28;4167594;28;20052;-54
2022/06/13 02:45:26;;;;;;;6.70;5.80;;;;;;;17.58;75.25;94628.53;4167871;28;20052;-53
2022/06/13 02:48:03;;;;;;;9.57;5.82;;;;;;;17.59;75.12;94624.88;4166599;28;20509;-49
2022/06/13 02:50:14;;;;;;;8.20;5.50;;;;;;;17.63;75.14;94627.09;4169263;28;20053;-50
2022/06/13 02:52:31;;;;;;;7.90;6.38;;;;;;;17.61;75.09;94630.75;4176204;28;20119;-53
2022/06/13 02:54:40;;;;;;;7.18;5.75;;;;;;;17.63;74.81;94627.91;4163550;28;20312;-54
2022/06/13 02:57:25;;;;;;;7.75;6.07;;;;;;;17.64;74.76;94634.84;4169752;28;20095;-52
2022/06/13 02:59:51;;;;;;;7.45;6.15;;;;;;;17.66;74.94;94631.97;4174906;28;20052;-49
2022/06/13 03:01:55;;;;;;;9.25;5.97;;;;;;;17.63;74.72;94635.03;4175797;28;20492;-49
2022/06/13 03:04:05;;;;;;;7.00;5.68;;;;;;;17.59;75.14;94639.94;4175877;28;20644;-51
2022/06/13 03:06:19;;;;;;;9.88;6.13;;;;;;;17.55;75.22;94633.41;4167854;28;20060;-51
2022/06/13 03:08:30;;;;;;;;;;;;;;;17.56;75.06;94635.84;4173385;28;20041;-51
2022/06/13 03:10:41;;;;;;;7.88;6.45;;;;;;;17.58;75.00;94636.47;4160816;28;20352;-52
2022/06/13 03:13:07;;;;;;;7.75;6.35;;;;;;;17.57;75.15;94652.56;4164874;28;20126;-52
2022/06/13 03:15:26;;;;;;;8.30;6.35;;;;;;;17.58;75.25;94643.59;4173120;28;20072;-49
2022/06/13 03:17:44;;;;;;;8.75;6.32;;;;;;;17.61;75.10;94648.47;4166230;28;20072;-49
2022/06/13 03:20:13;;;;;;;7.82;6.05;;;;;;;17.61;75.04;94644.00;4168225;28;20053;-49
2022/06/13 03:22:32;;;;;;;7.25;5.68;;;;;;;17.63;75.11;94643.78;4157945;28;20098;-51
2022/06/13 03:24:42;;;;;;;8.30;6.28;;;;;;;17.65;74.83;94648.91;4161888;28;20041;-50
2022/06/13 03:26:52;;;;;;;7.95;6.10;;;;;;;17.66;75.04;94650.53;4167162;28;20336;-49
2022/06/13 03:29:22;;;;;;;9.15;5.95;;;;;;;17.68;74.71;94659.91;4171764;28;20280;-49
2022/06/13 03:31:43;;;;;;;12.77;6.95;;;;;;;17.67;74.78;94663.56;4158454;28;20577;-49
2022/06/13 03:33:51;;;;;;;6.68;5.43;;;;;;;17.70;74.69;94667.63;4168613;28;20060;-51
2022/06/13 03:35:55;;;;;;;8.73;6.28;;;;;;;17.77;74.54;94671.13;4161284;28;20060;-52
2022/06/13 03:37:56;;;;;;;;;;;;;;;17.81;74.48;94664.41;4160415;28;20049;-51
2022/06/13 03:40:07;;;;;;;7.38;5.32;;;;;;;17.85;74.21;94668.28;4169622;28;19925;-48
2022/06/13 03:42:14;;;;;;;7.60;5.85;;;;;;;17.88;74.28;94667.06;4167893;28;20093;-51
2022/06/13 03:44:38;;;;;;;7.20;6.20;;;;;;;17.91;74.06;94667.47;4163868;28;20052;-53
2022/06/13 03:46:44;;;;;;;10.10;6.18;;;;;;;17.98;73.74;94664.81;4159634;28;20388;-52
2022/06/13 03:49:14;;;;;;;12.70;6.05;;;;;;;18.00;73.77;94673.38;4157961;28;20510;-51
2022/06/13 03:51:23;;;;;;;8.85;6.43;;;;;;;18.05;73.78;94675.38;4162103;28;20168;-51
2022/06/13 03:54:02;;;;;;;7.28;6.03;;;;;;;18.11;73.51;94670.09;4166640;28;20092;-50
2022/06/13 03:56:32;;;;;;;11.60;6.13;;;;;;;18.22;73.32;94666.00;4173510;28;20061;-51
2022/06/13 03:58:39;;;;;;;8.90;6.05;;;;;;;18.31;73.27;94674.56;4164812;28;20540;-51
2022/06/13 04:01:22;;;;;;;10.93;6.28;;;;;;;18.38;72.81;94673.50;4170001;28;20087;-51
2022/06/13 04:03:24;;;;;;;10.38;5.40;;;;;;;18.44;72.58;94674.53;4164598;28;20136;-48
2022/06/13 04:05:29;;;;;;;9.18;5.68;;;;;;;18.45;72.66;94676.13;4166358;28;20107;-52
2022/06/13 04:07:34;;;;;;;9.50;6.00;;;;;;;18.46;72.68;94675.13;4161982;28;20053;-52
2022/06/13 04:09:42;;;;;;;8.75;6.70;;;;;;;18.50;73.05;94673.69;4175624;28;20566;-49
2022/06/13 04:11:47;;;;;;;7.43;6.43;;;;;;;18.51;73.03;94682.47;4175095;28;20428;-49
2022/06/13 04:14:03;;;;;;;8.65;6.25;;;;;;;18.55;72.89;94676.53;4175959;28;20143;-53
2022/06/13 04:16:14;;;;;;;7.35;6.10;;;;;;;18.54;72.88;94685.53;4167132;28;20057;-51
2022/06/13 04:18:41;;;;;;;6.70;6.00;;;;;;;18.55;73.15;94686.31;4159279;28;20094;-49
2022/06/13 04:21:17;;;;;;;7.78;6.68;;;;;;;18.57;73.18;94679.78;4158535;28;20095;-50
2022/06/13 04:23:33;;;;;;;10.45;6.55;;;;;;;18.54;73.25;94676.72;4167094;28;20591;-49
2022/06/13 04:25:43;;;;;;;8.88;6.65;;;;;;;18.62;73.35;94672.00;4169605;28;20106;-53
2022/06/13 04:27:55;;;;;;;9.63;6.25;;;;;;;18.65;73.30;94676.09;4160291;28;20111;-49
2022/06/13 04:30:09;;;;;;;13.45;6.88;;;;;;;18.69;72.93;94677.31;4157548;28;20111;-52
2022/06/13 04:32:14;;;;;;;9.90;6.40;;;;;;;18.69;73.04;94666.69;4158955;28;20107;-51
2022/06/13 04:34:20;;;;;;;9.73;7.15;;;;;;;18.74;73.15;94664.22;4157163;28;20073;-51
2022/06/13 04:36:22;;;;;;;9.70;6.93;;;;;;;18.79;73.02;94669.72;4167772;28;20049;-51
2022/06/13 04:38:25;;;;;;;7.72;6.35;;;;;;;18.87;72.98;94667.88;4158678;28;20148;-53
2022/06/13 04:40:27;;;;;;;8.35;7.22;;;;;;;18.81;72.98;94669.53;4162802;28;20041;-51
2022/06/13 04:42:34;;;;;;;8.97;7.30;;;;;;;18.88;73.05;94664.19;4166689;28;20053;-54
2022/06/13 04:44:36;;;;;;;8.95;6.43;;;;;;;18.90;73.00;94665.59;4157422;28;20085;-52
2022/06/13 04:46:38;;;;;;;7.03;6.32;;;;;;;18.98;72.71;94665.34;4166919;28;20116;-51
2022/06/13 04:48:42;;;;;;;9.50;7.28;;;;;;;19.03;72.54;94659.41;4158668;28;20520;-50
2022/06/13 04:50:47;;;;;;;8.00;7.15;;;;;;;19.10;72.31;94662.03;4171356;28;20052;-50
2022/06/13 04:52:50;;;;;;;8.70;7.20;;;;;;;19.17;72.06;94666.28;4170483;28;20602;-52
2022/06/13 04:54:59;;;;;;;7.28;6.53;;;;;;;19.26;72.04;94661.53;4160307;28;20312;-56
2022/06/13 04:57:01;;;;;;;8.10;6.88;;;;;;;19.31;71.85;94653.72;4158747;28;20049;-54
2022/06/13 04:59:04;;;;;;;11.10;8.07;;;;;;;19.31;71.68;94666.19;4157394;28;20103;-49
2022/06/13 05:01:13;;;;;;;10.05;7.30;;;;;;;19.08;71.79;94672.88;4156712;28;20304;-47
2022/06/13 05:03:21;;;;;;;8.85;7.65;;;;;;;18.74;73.43;94666.88;4158810;28;20053;-50
2022/06/13 05:05:41;;;;;;;11.45;7.53;;;;;;;18.49;74.89;94666.75;4157036;28;20129;-49
2022/06/13 05:07:42;;;;;;;10.13;7.38;;;;;;;18.45;75.69;94664.72;4166764;28;20134;-51
2022/06/13 05:09:50;;;;;;;8.88;6.72;;;;;;;18.38;75.14;94673.50;4165947;28;20045;-49
2022/06/13 05:12:19;;;;;;;10.43;7.13;;;;;;;18.09;77.06;94666.00;4157068;28;20073;-50
2022/06/13 05:14:44;;;;;;;9.50;7.22;;;;;;;18.09;77.44;94672.16;4157118;28;20072;-50
2022/06/13 05:16:54;;;;;;;8.07;6.68;;;;;;;18.17;77.65;94663.16;4165844;28;20570;-53
2022/06/13 05:19:09;;;;;;;10.25;7.90;;;;;;;18.47;76.83;94662.69;4159792;28;20054;-52
2022/06/13 05:22:00;;;;;;;8.52;7.22;;;;;;;18.20;76.31;94660.91;4163861;28;20049;-51
2022/06/13 05:24:08;;;;;;;9.73;7.20;;;;;;;18.19;77.71;94663.75;4173545;28;20068;-51
2022/06/13 05:26:10;;;;;;;8.93;6.55;;;;;;;18.14;76.75;94674.19;4171512;28;20560;-51
2022/06/13 05:28:16;;;;;;;9.25;7.18;;;;;;;18.11;77.33;94669.28;4158595;28;20057;-47
2022/06/13 05:30:17;;;;;;;9.43;6.45;;;;;;;18.03;77.71;94669.50;4162935;28;20054;-49
2022/06/13 05:32:21;;;;;;;7.30;6.32;;;;;;;18.15;78.12;94667.84;4168481;28;20041;-49
2022/06/13 05:34:31;;;;;;;9.90;7.07;;;;;;;18.35;77.85;94659.88;4162294;28;20052;-49
2022/06/13 05:36:34;;;;;;;8.55;7.05;;;;;;;18.38;77.25;94664.75;4177216;28;20055;-51
2022/06/13 05:38:40;;;;;;;8.15;6.57;;;;;;;18.24;77.10;94665.78;4170535;28;20401;-50
2022/06/13 05:40:42;;;;;;;8.75;7.20;;;;;;;18.25;76.70;94660.28;4163638;28;20041;-52
2022/06/13 05:42:46;;;;;;;8.57;7.45;;;;;;;18.45;76.66;94664.72;4171336;28;20057;-52
2022/06/13 05:44:47;;;;;;;;;;;;;;;18.65;75.05;94660.19;4166402;28;20660;-51
2022/06/13 05:46:49;;;;;;;9.95;6.38;;;;;;;18.83;74.62;94664.81;4161479;28;19925;-51
2022/06/13 05:48:51;;;;;;;10.88;5.97;;;;;;;19.08;74.57;94662.25;4174499;28;20048;-52
2022/06/13 05:50:54;;;;;;;8.18;6.93;;;;;;;19.30;73.85;94668.06;4175495;28;20038;-52
2022/06/13 05:52:56;;;;;;;12.52;8.30;;;;;;;19.51;73.00;94668.72;4175707;28;20045;-51
2022/06/13 05:54:57;;;;;;;11.05;6.88;;;;;;;19.58;72.22;94670.31;4173844;28;20049;-51
2022/06/13 05:57:19;;;;;;;8.00;6.80;;;;;;;19.64;72.07;94668.66;4165286;28;20084;-49
2022/06/13 05:59:24;;;;;;;12.27;7.85;;;;;;;19.70;72.09;94664.31;4159343;28;20311;-52
2022/06/13 06:01:25;;;;;;;9.70;7.25;;;;;;;19.87;72.09;94665.41;4158756;28;20092;-52
2022/06/13 06:03:28;;;;;;;9.80;7.65;;;;;;;20.00;71.72;94660.00;4161480;28;20323;-49
2022/06/13 06:05:30;;;;;;;10.75;7.07;;;;;;;20.09;70.95;94660.53;4161999;28;20099;-50
2022/06/13 06:07:32;;;;;;;9.98;7.22;;;;;;;19.94;70.75;94668.84;4176637;28;20083;-50
2022/06/13 06:09:34;;;;;;;9.48;7.20;;;;;;;19.97;71.06;94662.28;4175266;28;20056;-50
2022/06/13 06:11:36;;;;;;;13.57;7.78;;;;;;;19.92;70.37;94673.56;4160149;28;20089;-53
2022/06/13 06:13:38;;;;;;;9.20;8.10;;;;;;;19.46;72.00;94672.03;4161445;28;20128;-50
2022/06/13 06:15:41;;;;;;;12.98;8.90;;;;;;;19.44;72.23;94676.75;4168488;28;20045;-53
2022/06/13 06:17:43;;;;;;;13.00;9.98;;;;;;;19.26;72.68;94676.66;4165167;28;20053;-51
2022/06/13 06:19:44;;;;;;;15.57;12.27;;;;;;;19.23;72.89;94673.41;4162327;28;20053;-52
2022/06/13 06:21:46;;;;;;;12.90;10.40;;;;;;;19.12;73.23;94668.78;4161536;28;20053;-49
2022/06/13 06:23:48;;;;;;;10.50;7.88;;;;;;;19.16;73.54;94675.25;4161116;28;20053;-49
2022/06/13 06:25:51;;;;;;;;;;;;;;;19.26;72.43;94676.66;4160485;28;20449;-49
2022/06/13 06:27:53;;;;;;;9.60;6.65;;;;;;;19.32;72.79;94673.97;4161318;28;20023;-52
2022/06/13 06:29:55;;;;;;;9.13;6.30;;;;;;;19.47;72.39;94678.16;4164339;28;20258;-53
2022/06/13 06:31:56;;;;;;;9.70;7.13;;;;;;;19.54;72.09;94687.72;4163545;28;20049;-52
2022/06/13 06:33:58;;;;;;;8.98;7.43;;;;;;;19.70;71.61;94677.63;4170872;28;20065;-48
2022/06/13 06:36:00;;;;;;;15.45;9.40;;;;;;;19.68;71.11;94679.63;4160508;28;20061;-50
2022/06/13 06:38:02;;;;;;;11.07;8.23;;;;;;;19.84;71.27;94673.84;4160712;28;20087;-51
2022/06/13 06:40:04;;;;;;;9.50;8.45;;;;;;;20.02;70.99;94681.03;4172647;28;20052;-53
2022/06/13 06:42:06;;;;;;;11.15;6.30;;;;;;;20.01;69.15;94682.88;4160768;28;20126;-53
2022/06/13 06:44:08;;;;;;;9.05;6.25;;;;;;;20.05;68.80;94676.09;4159781;28;20525;-51
2022/06/13 06:46:11;;;;;;;10.30;6.60;;;;;;;20.24;68.89;94678.78;4158927;28;20417;-50
2022/06/13 06:48:14;;;;;;;7.53;5.97;;;;;;;20.30;68.32;94677.91;4160309;28;20140;-49
2022/06/13 06:50:19;;;;;;;7.70;6.05;;;;;;;20.42;68.13;94678.81;4173397;28;20061;-52
2022/06/13 06:52:21;;;;;;;9.82;5.15;;;;;;;20.57;67.45;94677.66;4169799;28;20069;-52
2022/06/13 07:01:23;;;;;;;7.10;5.47;;;;;;;21.21;65.97;94675.47;4167277;28;20049;-48
2022/06/13 07:03:25;;;;;;;5.88;4.60;;;;;;;21.39;65.15;94670.09;4163382;28;20053;-52
2022/06/13 07:05:27;;;;;;;7.35;5.25;;;;;;;21.56;65.27;94664.94;4158650;28;20335;-50
2022/06/13 07:07:29;;;;;;;11.40;5.85;;;;;;;21.73;64.96;94669.63;4168615;28;20057;-50
2022/06/13 07:09:31;;;;;;;7.82;4.90;;;;;;;21.86;62.91;94672.09;4163130;28;20150;-51
2022/06/13 07:13:54;;;;;;;6.22;4.68;;;;;;;22.13;62.28;94661.78;4160356;28;20057;-54
2022/06/13 07:15:56;;;;;;;6.45;4.55;;;;;;;22.25;62.12;94669.81;4162591;28;20061;-51
2022/06/13 07:17:57;;;;;;;9.93;5.20;;;;;;;22.32;61.77;94665.16;4161676;28;20393;-56
2022/06/13 07:19:59;;;;;;;9.38;5.45;;;;;;;22.41;61.70;94670.97;4161650;28;20475;-53
2022/06/13 07:22:02;;;;;;;7.85;4.20;;;;;;;22.13;59.78;94667.09;4161670;28;20107;-51
2022/06/13 07:24:04;;;;;;;12.15;5.00;;;;;;;21.88;60.28;94665.47;4163399;28;20163;-54
2022/06/13 07:26:06;;;;;;;6.75;4.45;;;;;;;21.63;60.97;94667.50;4170306;28;20098;-53
2022/06/13 07:28:08;;;;;;;8.70;5.72;;;;;;;21.61;61.34;94672.25;4165606;28;20092;-52
2022/06/13 07:30:11;;;;;;;7.30;5.20;;;;;;;21.42;61.67;94668.84;4164400;28;20476;-51
2022/06/13 07:32:17;;;;;;;5.38;4.40;;;;;;;21.60;61.89;94671.47;4166716;28;20041;-52
2022/06/13 07:34:22;;;;;;;9.18;6.35;;;;;;;21.84;61.82;94669.63;4160833;28;20180;-51
2022/06/13 07:36:24;;;;;;;6.93;4.85;;;;;;;22.01;61.20;94669.78;4159373;28;20491;-49
2022/06/13 07:38:25;;;;;;;9.15;5.10;;;;;;;22.20;60.78;94669.66;4162810;28;20370;-52
2022/06/13 07:40:28;;;;;;;7.20;4.63;;;;;;;22.32;61.07;94667.03;4162956;28;20103;-50
2022/06/13 07:42:33;;;;;;;8.57;5.65;;;;;;;22.44;60.75;94670.50;4162907;28;20046;-47
2022/06/13 07:44:38;;;;;;;7.70;4.82;;;;;;;22.53;60.50;94669.09;4157547;28;20431;-49
2022/06/13 07:46:41;;;;;;;8.65;5.20;;;;;;;22.65;59.43;94669.91;4167380;28;20052;-52
2022/06/13 07:48:44;;;;;;;6.68;4.90;;;;;;;22.73;59.34;94676.72;4163071;28;20520;-49
2022/06/13 07:50:46;;;;;;;7.80;4.53;;;;;;;22.85;58.82;94680.19;4175728;28;20087;-50
2022/06/13 07:52:48;;;;;;;9.70;4.90;;;;;;;22.86;59.40;94673.78;4171465;28;20123;-50
2022/06/13 07:54:50;;;;;;;11.95;4.30;;;;;;;22.77;58.83;94677.06;4164759;28;20049;-52
2022/06/13 07:56:52;;;;;;;7.22;5.00;;;;;;;22.41;60.24;94676.31;4175031;28;20191;-53
2022/06/13 07:58:54;;;;;;;6.38;4.93;;;;;;;22.35;59.25;94672.72;4162863;28;20045;-51
2022/06/13 08:00:56;;;;;;;10.60;5.22;;;;;;;22.39;58.42;94676.56;4170362;28;20049;-54
2022/06/13 08:02:59;;;;;;;5.57;4.43;;;;;;;22.21;60.20;94672.09;4158699;28;20407;-51
2022/06/13 08:05:01;;;;;;;8.77;5.47;;;;;;;22.21;59.95;94668.63;4157816;28;20049;-48
2022/06/13 08:07:03;;;;;;;6.78;4.80;;;;;;;22.16;60.44;94668.53;4164941;28;20112;-51
2022/06/13 08:09:04;;;;;;;7.68;5.10;;;;;;;22.21;59.89;94671.28;4161319;28;20148;-51
2022/06/13 08:11:08;;;;;;;6.15;4.30;;;;;;;22.12;59.33;94670.84;4161447;28;20088;-49
2022/06/13 08:13:14;;;;;;;;;;;;;;;22.23;60.14;94669.25;4163128;28;20302;-50
2022/06/13 08:15:16;;;;;;;7.93;4.35;;;;;;;22.34;58.93;94670.28;4157488;28;20495;-51
2022/06/13 08:17:21;;;;;;;6.45;4.10;;;;;;;22.45;59.10;94678.25;4158721;28;20245;-53
2022/06/13 08:19:22;;;;;;;7.03;4.60;;;;;;;22.68;58.29;94668.63;4163544;28;20451;-50
2022/06/13 08:21:24;;;;;;;5.38;4.22;;;;;;;22.83;57.59;94670.78;4166218;28;20045;-51
2022/06/13 08:23:26;;;;;;;7.18;4.93;;;;;;;22.89;56.56;94668.00;4170711;28;20049;-50
2022/06/13 08:25:31;;;;;;;5.80;5.15;;;;;;;23.10;56.19;94674.59;4169115;28;20111;-50
2022/06/13 08:27:32;;;;;;;7.90;4.45;;;;;;;23.30;56.28;94679.50;4167756;28;20334;-51
2022/06/13 08:29:34;;;;;;;9.30;3.72;;;;;;;22.98;55.24;94680.97;4170913;28;20060;-54
2022/06/13 08:31:36;;;;;;;4.90;4.20;;;;;;;23.02;55.29;94679.50;4162172;28;20509;-52
2022/06/13 08:33:39;;;;;;;8.68;4.25;;;;;;;23.19;56.06;94682.19;4166531;28;20053;-48
2022/06/13 08:35:41;;;;;;;7.45;3.40;;;;;;;23.51;55.53;94679.84;4163505;28;20123;-53
2022/06/13 08:37:42;;;;;;;5.45;3.83;;;;;;;23.75;55.18;94677.06;4158637;28;20099;-51
2022/06/13 08:39:44;;;;;;;5.43;3.90;;;;;;;23.64;54.87;94678.75;4168837;28;20045;-50
2022/06/13 08:41:46;;;;;;;5.80;3.58;;;;;;;23.93;55.35;94684.91;4165806;28;20428;-53
2022/06/13 08:44:35;;;;;;;4.38;3.67;;;;;;;23.89;55.35;94679.22;4167121;28;20048;-51
2022/06/13 08:46:58;;;;;;;7.07;3.75;;;;;;;23.84;53.98;94683.69;4162421;28;20061;-52
2022/06/13 08:49:11;;;;;;;8.77;4.07;;;;;;;23.77;53.91;94681.16;4163718;28;20124;-52
2022/06/13 08:51:16;;;;;;;8.60;3.63;;;;;;;24.05;54.12;94685.63;4162141;28;20041;-53
2022/06/13 08:53:21;;;;;;;3.95;3.25;;;;;;;24.00;53.57;94687.41;4165706;28;20586;-55
2022/06/13 08:55:26;;;;;;;4.95;3.72;;;;;;;24.13;53.80;94676.38;4168728;28;20110;-52
2022/06/13 08:57:31;;;;;;;7.07;3.67;;;;;;;24.14;52.63;94677.22;4161754;28;20236;-51
2022/06/13 08:59:49;;;;;;;5.10;3.75;;;;;;;24.36;53.71;94670.03;4156597;28;20057;-52
2022/06/13 09:01:57;;;;;;;6.45;3.67;;;;;;;24.42;52.68;94671.72;4157212;28;20115;-51
2022/06/13 09:04:05;;;;;;;5.18;3.58;;;;;;;24.46;53.50;94672.88;4158734;28;20053;-51
2022/06/13 09:06:38;;;;;;;8.68;4.53;;;;;;;24.48;54.15;94665.44;4172491;28;20065;-53
2022/06/13 09:08:52;;;;;;;4.18;3.38;;;;;;;24.53;53.53;94667.34;4159372;28;20171;-52
2022/06/13 09:11:04;;;;;;;4.00;3.40;;;;;;;24.61;52.80;94666.94;4159656;28;20084;-50
2022/06/13 09:13:12;;;;;;;7.30;3.50;;;;;;;24.77;52.76;94664.47;4169340;28;20654;-51
2022/06/13 09:15:19;;;;;;;6.32;3.28;;;;;;;24.97;52.57;94667.38;4174874;28;20691;-52
2022/06/13 09:17:27;;;;;;;6.38;3.40;;;;;;;24.61;49.99;94666.09;4161786;28;20128;-52
2022/06/13 09:19:34;;;;;;;4.45;3.40;;;;;;;24.46;51.80;94656.78;4160271;28;20060;-53
2022/06/13 09:22:04;;;;;;;4.70;3.47;;;;;;;24.62;51.75;94665.88;4165404;28;20049;-54
2022/06/13 09:24:24;;;;;;;4.30;3.70;;;;;;;24.61;51.63;94674.13;4159867;28;20451;-50
2022/06/13 09:26:53;;;;;;;5.20;3.63;;;;;;;24.53;51.38;94675.38;4160116;28;20041;-51
2022/06/13 09:29:01;;;;;;;7.85;4.20;;;;;;;24.67;51.29;94662.44;4171590;28;20052;-52
2022/06/13 09:31:08;;;;;;;7.18;3.80;;;;;;;24.84;50.96;94665.06;4161298;28;20123;-50
2022/06/13 09:33:30;;;;;;;5.00;3.70;;;;;;;24.79;49.83;94663.13;4177850;28;20045;-51
2022/06/13 09:35:35;;;;;;;6.85;3.15;;;;;;;24.71;50.76;94659.00;4177548;28;20087;-52
2022/06/13 09:37:53;;;;;;;5.03;3.30;;;;;;;24.74;50.92;94657.72;4163075;28;20060;-53
2022/06/13 09:39:55;;;;;;;5.00;3.50;;;;;;;24.98;50.98;94657.47;4161449;28;20496;-49
2022/06/13 09:42:18;;;;;;;9.45;5.38;;;;;;;25.20;50.13;94652.94;4167880;28;20511;-53
2022/06/13 09:44:32;;;;;;;7.00;3.85;;;;;;;25.24;50.12;94654.06;4164644;28;20121;-51
2022/06/13 09:47:17;;;;;;;8.30;4.18;;;;;;;25.02;50.12;94650.56;4160746;28;20443;-49
2022/06/13 09:49:21;;;;;;;6.80;3.75;;;;;;;24.89;51.07;94647.19;4168298;28;20045;-51
2022/06/13 09:52:08;;;;;;;5.97;3.47;;;;;;;24.76;51.10;94652.09;4177698;28;20052;-49
2022/06/13 09:54:13;;;;;;;5.90;3.53;;;;;;;25.03;52.17;94652.19;4176348;28;20353;-52
2022/06/13 09:56:18;;;;;;;5.55;3.60;;;;;;;25.07;50.28;94659.47;4172728;28;20383;-49
2022/06/13 09:58:58;;;;;;;5.97;3.92;;;;;;;25.18;49.54;94657.69;4168417;28;20045;-51
2022/06/13 10:01:18;;;;;;;4.55;3.60;;;;;;;25.42;48.89;94644.84;4158991;28;20571;-51
2022/06/13 10:03:38;;;;;;;5.68;3.97;;;;;;;25.64;49.01;94644.81;4168190;28;20046;-51
2022/06/13 10:05:46;;;;;;;4.90;3.67;;;;;;;25.46;48.10;94648.63;4172275;28;20462;-52
2022/06/13 10:08:09;;;;;;;4.13;3.70;;;;;;;25.01;48.67;94648.94;4169195;28;20152;-55
2022/06/13 10:11:04;;;;;;;9.75;5.63;;;;;;;24.93;50.24;94645.66;4173655;28;20076;-53
2022/06/13 10:13:27;;;;;;;5.80;3.70;;;;;;;24.66;50.75;94647.44;4159751;28;20092;-52
2022/06/13 10:15:44;;;;;;;5.22;3.70;;;;;;;24.73;49.52;94645.38;4171919;28;20057;-53
2022/06/13 10:18:07;;;;;;;3.80;3.40;;;;;;;24.87;49.91;94645.84;4159485;28;20061;-49
2022/06/13 10:20:18;;;;;;;4.55;3.35;;;;;;;24.77;49.79;94640.34;4161795;28;20179;-50
2022/06/13 10:22:30;;;;;;;6.20;3.80;;;;;;;24.86;49.86;94633.47;4159565;28;20215;-51